createdAt,value
2023-01-29T00:01:48.137Z,9.74
2023-01-29T00:05:49.483Z,9.71
2023-01-29T00:09:50.829Z,9.77
2023-01-29T00:13:52.934Z,9.76
2023-01-29T00:17:54.323Z,9.73
2023-01-29T00:21:55.736Z,9.83
2023-01-29T00:25:59.980Z,9.87
2023-01-29T00:30:12.694Z,9.90
2023-01-29T00:34:14.015Z,9.81
2023-01-29T00:38:15.527Z,9.77
2023-01-29T00:42:35.521Z,9.85
2023-01-29T00:46:36.992Z,9.96
2023-01-29T00:50:38.350Z,9.93
2023-01-29T00:54:39.708Z,9.79
2023-01-29T00:58:40.977Z,9.87
2023-01-29T01:03:01.249Z,9.81
2023-01-29T01:07:02.576Z,9.84
2023-01-29T01:11:06.341Z,9.83
2023-01-29T01:15:08.059Z,9.75
2023-01-29T01:19:09.957Z,9.71
2023-01-29T01:23:11.234Z,9.76
2023-01-29T01:27:13.352Z,9.77
2023-01-29T01:31:15.517Z,9.74
2023-01-29T01:35:17.178Z,9.71
2023-01-29T01:39:18.612Z,9.64
2023-01-29T01:43:19.969Z,9.68
2023-01-29T01:47:27.888Z,9.69
2023-01-29T01:51:32.119Z,9.64
2023-01-29T01:55:35.799Z,9.58
2023-01-29T01:59:40.070Z,9.58
2023-01-29T02:04:14.456Z,9.67
2023-01-29T02:08:41.401Z,9.65
2023-01-29T02:12:45.302Z,9.65
2023-01-29T02:16:46.684Z,9.52
2023-01-29T02:21:29.163Z,9.70
2023-01-29T02:25:55.409Z,9.50
2023-01-29T02:30:13.724Z,9.49
2023-01-29T02:34:28.641Z,9.30
2023-01-29T02:38:49.582Z,9.32
2023-01-29T02:42:55.824Z,9.30
2023-01-29T02:47:03.169Z,9.24
2023-01-29T02:51:11.342Z,9.21
2023-01-29T02:55:19.229Z,9.49
2023-01-29T02:59:25.365Z,9.44
2023-01-29T03:03:41.783Z,9.47
2023-01-29T03:07:51.920Z,9.37
2023-01-29T03:11:58.804Z,9.32
2023-01-29T03:16:11.403Z,9.14
2023-01-29T03:20:17.646Z,9.32
2023-01-29T03:24:45.048Z,9.21
2023-01-29T03:29:06.408Z,9.03
2023-01-29T03:33:11.120Z,9.05
2023-01-29T03:37:36.015Z,9.05
2023-01-29T03:41:53.638Z,9.10
2023-01-29T03:46:04.862Z,8.98
2023-01-29T03:50:24.610Z,8.67
2023-01-29T03:54:39.220Z,8.84
2023-01-29T03:58:48.225Z,8.93
2023-01-29T04:03:14.248Z,8.91
2023-01-29T04:07:23.728Z,8.89
2023-01-29T04:11:27.306Z,8.94
2023-01-29T04:15:33.870Z,8.77
2023-01-29T04:19:35.882Z,8.68
2023-01-29T04:23:37.220Z,8.81
2023-01-29T04:27:52.042Z,8.71
2023-01-29T04:32:35.232Z,8.81
2023-01-29T04:36:51.512Z,9.00
2023-01-29T04:41:01.320Z,8.91
2023-01-29T04:45:31.186Z,8.68
2023-01-29T04:49:41.203Z,9.06
2023-01-29T04:53:45.620Z,8.99
2023-01-29T04:58:24.512Z,9.03
2023-01-29T05:02:28.051Z,8.76
2023-01-29T05:06:31.538Z,8.44
2023-01-29T05:10:34.224Z,8.31
2023-01-29T05:14:37.726Z,8.60
2023-01-29T05:18:39.062Z,8.51
2023-01-29T05:22:41.739Z,8.28
2023-01-29T05:27:03.571Z,8.50
2023-01-29T05:31:05.019Z,8.55
2023-01-29T05:35:06.787Z,8.59
2023-01-29T05:39:08.135Z,8.02
2023-01-29T05:43:16.476Z,8.37
2023-01-29T05:47:21.249Z,8.37
2023-01-29T05:51:22.707Z,8.38
2023-01-29T05:55:23.998Z,8.11
2023-01-29T05:59:25.411Z,8.28
2023-01-29T06:03:26.695Z,8.39
2023-01-29T06:07:28.048Z,8.29
2023-01-29T06:11:29.582Z,7.59
2023-01-29T06:15:30.894Z,8.20
2023-01-29T06:19:32.256Z,8.30
2023-01-29T06:23:33.660Z,8.27
2023-01-29T06:27:35.176Z,8.36
2023-01-29T06:31:39.368Z,8.23
2023-01-29T06:35:41.152Z,8.11
2023-01-29T06:39:42.426Z,8.18
2023-01-29T06:43:44.887Z,8.06
2023-01-29T06:47:46.283Z,8.29
2023-01-29T06:51:47.578Z,8.40
2023-01-29T06:55:52.840Z,8.47
2023-01-29T06:59:54.229Z,8.62
2023-01-29T07:03:55.715Z,8.43
2023-01-29T07:07:57.635Z,8.56
2023-01-29T07:11:58.998Z,8.34
2023-01-29T07:16:02.981Z,7.80
2023-01-29T07:20:06.007Z,8.55
2023-01-29T07:24:07.650Z,8.52
2023-01-29T07:28:09.147Z,8.55
2023-01-29T07:32:10.567Z,8.75
2023-01-29T07:36:13.087Z,8.50
2023-01-29T07:40:15.062Z,8.40
2023-01-29T07:44:16.825Z,9.03
2023-01-29T07:48:18.539Z,8.76
2023-01-29T07:52:22.154Z,8.51
2023-01-29T07:56:23.815Z,8.84
2023-01-29T08:00:25.575Z,8.84
2023-01-29T08:04:26.888Z,8.70
2023-01-29T08:08:28.161Z,8.92
2023-01-29T08:12:29.523Z,8.87
2023-01-29T08:16:30.927Z,8.79
2023-01-29T08:20:32.539Z,9.03
2023-01-29T08:24:47.562Z,8.76
2023-01-29T08:28:55.334Z,9.09
2023-01-29T08:32:56.855Z,8.92
2023-01-29T08:36:58.489Z,9.22
2023-01-29T08:40:59.864Z,8.88
2023-01-29T08:45:01.187Z,9.37
2023-01-29T08:49:03.186Z,9.22
2023-01-29T08:53:09.806Z,9.21
2023-01-29T08:57:11.170Z,8.61
2023-01-29T09:01:14.237Z,8.88
2023-01-29T09:05:15.888Z,9.04
2023-01-29T09:09:18.327Z,8.90
2023-01-29T09:13:19.727Z,9.01
2023-01-29T09:17:21.390Z,9.02
2023-01-29T09:21:22.661Z,9.32
2023-01-29T09:25:24.036Z,9.81
2023-01-29T09:29:25.377Z,10.25
2023-01-29T09:33:26.871Z,10.48
2023-01-29T09:37:28.244Z,9.88
2023-01-29T09:41:45.287Z,10.23
2023-01-29T09:45:58.175Z,10.08
2023-01-29T09:50:04.903Z,10.09
2023-01-29T09:54:19.734Z,10.16
2023-01-29T09:58:39.725Z,10.67
2023-01-29T10:02:58.969Z,9.63
2023-01-29T10:07:19.327Z,10.67
2023-01-29T10:11:48.838Z,10.32
2023-01-29T10:16:22.852Z,10.47
2023-01-29T10:20:52.967Z,10.68
2023-01-29T10:25:00.447Z,11.40
2023-01-29T10:29:06.784Z,11.28
2023-01-29T10:33:19.078Z,11.69
2023-01-29T10:37:30.830Z,11.46
2023-01-29T10:41:54.075Z,10.24
2023-01-29T10:46:04.581Z,11.30
2023-01-29T10:50:16.304Z,11.44
2023-01-29T10:54:30.041Z,11.72
2023-01-29T10:58:34.514Z,11.33
2023-01-29T11:02:35.887Z,11.57
2023-01-29T11:06:37.446Z,11.27
2023-01-29T11:11:08.338Z,11.04
2023-01-29T11:15:18.735Z,11.41
2023-01-29T11:19:37.485Z,12.10
2023-01-29T11:23:38.799Z,12.20
2023-01-29T11:27:45.421Z,11.35
2023-01-29T11:31:47.114Z,10.74
2023-01-29T11:35:48.508Z,11.19
2023-01-29T11:39:50.585Z,11.25
2023-01-29T11:43:51.864Z,11.26
2023-01-29T11:47:55.861Z,11.94
2023-01-29T11:52:01.914Z,12.11
2023-01-29T11:56:16.153Z,12.26
2023-01-29T12:00:28.420Z,12.59
2023-01-29T12:04:30.303Z,12.81
2023-01-29T12:08:38.400Z,11.90
2023-01-29T12:12:42.275Z,12.26
2023-01-29T12:16:58.488Z,12.21
2023-01-29T12:21:23.873Z,12.45
2023-01-29T12:25:38.438Z,12.80
2023-01-29T12:29:52.811Z,12.93
2023-01-29T12:34:05.448Z,12.58
2023-01-29T12:38:21.794Z,12.82
2023-01-29T12:42:24.486Z,12.24
2023-01-29T12:46:33.855Z,12.67
2023-01-29T12:50:37.489Z,12.79
2023-01-29T12:54:49.152Z,12.99
2023-01-29T12:58:55.643Z,12.38
2023-01-29T13:03:20.990Z,12.58
2023-01-29T13:07:30.608Z,13.04
2023-01-29T13:11:42.592Z,12.61
2023-01-29T13:15:44.604Z,12.82
2023-01-29T13:19:50.769Z,12.33
2023-01-29T13:23:56.241Z,13.43
2023-01-29T13:27:57.775Z,12.47
2023-01-29T13:32:01.739Z,12.17
2023-01-29T13:36:03.684Z,12.82
2023-01-29T13:40:07.354Z,12.70
2023-01-29T13:44:21.042Z,12.69
2023-01-29T13:48:27.803Z,13.49
2023-01-29T13:52:35.786Z,13.44
2023-01-29T13:56:40.098Z,13.42
2023-01-29T14:00:41.369Z,13.24
2023-01-29T14:04:42.693Z,13.12
2023-01-29T14:08:45.235Z,13.48
2023-01-29T14:12:48.399Z,13.22
2023-01-29T14:16:49.970Z,13.92
2023-01-29T14:20:58.639Z,13.84
2023-01-29T14:25:03.836Z,13.83
2023-01-29T14:29:32.574Z,14.20
2023-01-29T14:33:38.482Z,13.89
2023-01-29T14:37:41.384Z,13.80
2023-01-29T14:41:43.009Z,13.88
2023-01-29T14:45:45.004Z,14.10
2023-01-29T14:49:59.445Z,13.76
2023-01-29T14:54:14.556Z,13.46
2023-01-29T14:58:23.689Z,13.99
2023-01-29T15:02:37.115Z,14.04
2023-01-29T15:06:46.370Z,14.37
2023-01-29T15:11:19.035Z,14.46
2023-01-29T15:15:52.560Z,14.27
2023-01-29T15:19:54.965Z,14.60
2023-01-29T15:24:06.938Z,14.58
2023-01-29T15:28:11.081Z,14.62
2023-01-29T15:32:29.834Z,14.72
2023-01-29T15:36:32.128Z,14.44
2023-01-29T15:40:34.688Z,14.41
2023-01-29T15:44:36.014Z,14.45
2023-01-29T15:48:43.464Z,14.47
2023-01-29T15:52:49.848Z,14.29
2023-01-29T15:56:53.069Z,14.31
2023-01-29T16:00:57.247Z,14.24
2023-01-29T16:04:59.291Z,14.27
2023-01-29T16:09:01.091Z,14.14
2023-01-29T16:13:03.129Z,14.12
2023-01-29T16:17:23.024Z,14.09
2023-01-29T16:21:33.832Z,14.33
2023-01-29T16:25:38.550Z,13.91
2023-01-29T16:29:40.008Z,14.03
2023-01-29T16:33:45.307Z,14.06
2023-01-29T16:37:48.840Z,14.28
2023-01-29T16:42:21.397Z,14.20
2023-01-29T16:46:26.120Z,14.39
2023-01-29T16:50:36.051Z,14.35
2023-01-29T16:54:43.214Z,13.99
2023-01-29T16:58:50.658Z,13.94
2023-01-29T17:02:56.422Z,13.98
2023-01-29T17:07:01.249Z,14.00
2023-01-29T17:11:03.157Z,14.04
2023-01-29T17:15:26.038Z,13.71
2023-01-29T17:19:30.009Z,13.86
2023-01-29T17:23:31.386Z,13.20
2023-01-29T17:27:32.801Z,13.67
2023-01-29T17:31:34.302Z,13.06
2023-01-29T17:35:38.004Z,13.24
2023-01-29T17:39:39.456Z,13.28
2023-01-29T17:43:41.029Z,12.87
2023-01-29T17:47:42.375Z,12.40
2023-01-29T17:51:43.740Z,12.91
2023-01-29T17:55:45.111Z,13.36
2023-01-29T17:59:46.775Z,13.04
2023-01-29T18:03:48.080Z,12.78
2023-01-29T18:07:52.127Z,13.06
2023-01-29T18:11:53.981Z,12.77
2023-01-29T18:15:55.794Z,13.11
2023-01-29T18:19:58.232Z,12.34
2023-01-29T18:23:59.704Z,13.04
2023-01-29T18:28:01.734Z,13.17
2023-01-29T18:32:03.969Z,13.30
2023-01-29T18:36:06.715Z,13.01
2023-01-29T18:40:09.831Z,13.53
2023-01-29T18:44:11.718Z,13.20
2023-01-29T18:48:14.102Z,12.85
2023-01-29T18:52:16.289Z,12.91
2023-01-29T18:56:17.808Z,12.90
2023-01-29T19:00:19.645Z,12.55
2023-01-29T19:04:21.069Z,13.05
2023-01-29T19:08:22.416Z,13.08
2023-01-29T19:12:23.864Z,12.98
2023-01-29T19:16:25.712Z,13.15
2023-01-29T19:20:27.140Z,13.13
2023-01-29T19:24:28.546Z,12.57
2023-01-29T19:28:29.983Z,12.85
2023-01-29T19:32:32.040Z,13.23
2023-01-29T19:36:33.454Z,12.56
2023-01-29T19:40:35.676Z,12.79
2023-01-29T19:44:39.101Z,13.27
2023-01-29T19:48:40.742Z,13.36
2023-01-29T19:52:51.217Z,13.30
2023-01-29T19:56:53.679Z,13.24
2023-01-29T20:01:00.300Z,13.47
2023-01-29T20:05:03.415Z,13.32
2023-01-29T20:09:05.471Z,13.25
2023-01-29T20:13:06.780Z,13.31
2023-01-29T20:17:08.239Z,13.35
2023-01-29T20:21:12.469Z,13.50
2023-01-29T20:25:14.116Z,13.13
2023-01-29T20:29:15.505Z,13.18
2023-01-29T20:33:16.842Z,13.14
2023-01-29T20:37:19.236Z,12.92
2023-01-29T20:41:21.132Z,13.19
2023-01-29T20:45:23.108Z,13.19
2023-01-29T20:49:24.416Z,12.97
2023-01-29T20:53:25.721Z,13.32
2023-01-29T20:57:27.331Z,13.35
2023-01-29T21:01:28.868Z,13.55
2023-01-29T21:05:30.307Z,13.18
2023-01-29T21:09:31.868Z,13.50
2023-01-29T21:13:33.663Z,13.67
2023-01-29T21:17:35.063Z,13.63
2023-01-29T21:21:36.468Z,13.98
2023-01-29T21:25:38.737Z,13.40
2023-01-29T21:29:40.153Z,13.64
2023-01-29T21:33:41.960Z,13.82
2023-01-29T21:37:43.387Z,14.35
2023-01-29T21:42:05.078Z,13.53
2023-01-29T21:46:13.789Z,13.63
2023-01-29T21:50:16.051Z,13.79
2023-01-29T21:54:18.080Z,13.78
2023-01-29T21:58:20.493Z,13.99
2023-01-29T22:02:22.965Z,14.13
2023-01-29T22:06:24.674Z,14.37
2023-01-29T22:10:26.130Z,13.76
2023-01-29T22:14:27.610Z,14.00
2023-01-29T22:18:28.908Z,14.38
2023-01-29T22:22:30.277Z,14.47
2023-01-29T22:26:32.114Z,14.50
2023-01-29T22:30:33.611Z,14.52
2023-01-29T22:34:34.975Z,14.60
2023-01-29T22:38:36.475Z,14.60
2023-01-29T22:42:37.811Z,14.66
2023-01-29T22:46:39.229Z,14.17
2023-01-29T22:50:41.474Z,14.41
2023-01-29T22:54:43.634Z,14.55
2023-01-29T22:58:45.031Z,14.69
2023-01-29T23:02:47.222Z,14.65
2023-01-29T23:06:48.559Z,14.51
2023-01-29T23:10:50.205Z,14.73
2023-01-29T23:14:51.503Z,14.74
2023-01-29T23:18:55.989Z,14.71
2023-01-29T23:22:57.431Z,14.63
2023-01-29T23:27:17.123Z,14.18
2023-01-29T23:31:18.575Z,14.80
2023-01-29T23:35:20.025Z,14.91
2023-01-29T23:39:21.451Z,14.98
2023-01-29T23:43:26.563Z,14.92
2023-01-29T23:47:27.889Z,15.05
2023-01-29T23:51:29.190Z,14.90
2023-01-29T23:55:30.509Z,15.17
2023-01-29T23:59:31.874Z,15.34
